sensor_id;sensor_type;location;lat;lon;timestamp;P1;durP1;ratioP1;P2;durP2;ratioP2
77409;SDS011;66481;51.332;22.804;2023-05-07T00:01:49;3.67;;;2.70;;
77409;SDS011;66481;51.332;22.804;2023-05-07T00:05:50;2.35;;;1.67;;
77409;SDS011;66481;51.332;22.804;2023-05-07T00:09:53;4.30;;;2.35;;
77409;SDS011;66481;51.332;22.804;2023-05-07T00:13:54;4.15;;;1.77;;
77409;SDS011;66481;51.332;22.804;2023-05-07T00:17:55;2.75;;;1.70;;
77409;SDS011;66481;51.332;22.804;2023-05-07T00:21:56;4.50;;;2.28;;
77409;SDS011;66481;51.332;22.804;2023-05-07T00:25:57;2.25;;;1.63;;
77409;SDS011;66481;51.332;22.804;2023-05-07T00:29:58;2.60;;;1.55;;
77409;SDS011;66481;51.332;22.804;2023-05-07T00:33:59;2.08;;;1.75;;
77409;SDS011;66481;51.332;22.804;2023-05-07T00:38:00;4.05;;;1.83;;
77409;SDS011;66481;51.332;22.804;2023-05-07T00:42:03;2.60;;;1.58;;
77409;SDS011;66481;51.332;22.804;2023-05-07T00:46:05;2.10;;;1.48;;
77409;SDS011;66481;51.332;22.804;2023-05-07T00:50:05;1.58;;;1.33;;
77409;SDS011;66481;51.332;22.804;2023-05-07T00:54:07;1.60;;;1.20;;
77409;SDS011;66481;51.332;22.804;2023-05-07T00:58:09;1.75;;;1.42;;
77409;SDS011;66481;51.332;22.804;2023-05-07T01:02:10;2.22;;;1.30;;
77409;SDS011;66481;51.332;22.804;2023-05-07T01:06:12;2.47;;;1.50;;
77409;SDS011;66481;51.332;22.804;2023-05-07T01:10:17;2.70;;;2.00;;
77409;SDS011;66481;51.332;22.804;2023-05-07T01:14:18;2.30;;;1.38;;
77409;SDS011;66481;51.332;22.804;2023-05-07T01:18:21;2.13;;;1.83;;
77409;SDS011;66481;51.332;22.804;2023-05-07T01:22:29;3.38;;;2.15;;
77409;SDS011;66481;51.332;22.804;2023-05-07T01:26:32;1.92;;;1.67;;
77409;SDS011;66481;51.332;22.804;2023-05-07T01:30:33;2.95;;;2.15;;
77409;SDS011;66481;51.332;22.804;2023-05-07T01:34:35;1.85;;;1.13;;
77409;SDS011;66481;51.332;22.804;2023-05-07T01:38:38;2.63;;;1.85;;
77409;SDS011;66481;51.332;22.804;2023-05-07T01:42:41;2.28;;;1.33;;
77409;SDS011;66481;51.332;22.804;2023-05-07T01:46:44;1.50;;;1.10;;
77409;SDS011;66481;51.332;22.804;2023-05-07T01:50:45;2.40;;;1.50;;
77409;SDS011;66481;51.332;22.804;2023-05-07T01:54:47;1.60;;;1.30;;
77409;SDS011;66481;51.332;22.804;2023-05-07T01:58:48;1.45;;;1.05;;
77409;SDS011;66481;51.332;22.804;2023-05-07T02:02:52;2.83;;;2.03;;
77409;SDS011;66481;51.332;22.804;2023-05-07T02:06:53;1.67;;;1.42;;
77409;SDS011;66481;51.332;22.804;2023-05-07T02:10:54;2.38;;;1.45;;
77409;SDS011;66481;51.332;22.804;2023-05-07T02:14:55;2.03;;;1.58;;
77409;SDS011;66481;51.332;22.804;2023-05-07T02:18:56;3.28;;;2.17;;
77409;SDS011;66481;51.332;22.804;2023-05-07T02:22:58;3.28;;;1.50;;
77409;SDS011;66481;51.332;22.804;2023-05-07T02:26:59;1.73;;;1.35;;
77409;SDS011;66481;51.332;22.804;2023-05-07T02:31:02;2.00;;;1.42;;
77409;SDS011;66481;51.332;22.804;2023-05-07T02:35:03;3.50;;;2.05;;
77409;SDS011;66481;51.332;22.804;2023-05-07T02:39:05;2.22;;;1.63;;
77409;SDS011;66481;51.332;22.804;2023-05-07T02:43:06;1.98;;;1.42;;
77409;SDS011;66481;51.332;22.804;2023-05-07T02:47:07;3.40;;;1.73;;
77409;SDS011;66481;51.332;22.804;2023-05-07T02:51:09;3.17;;;1.80;;
77409;SDS011;66481;51.332;22.804;2023-05-07T02:55:10;1.92;;;1.63;;
77409;SDS011;66481;51.332;22.804;2023-05-07T02:59:11;2.35;;;1.83;;
77409;SDS011;66481;51.332;22.804;2023-05-07T03:03:12;2.05;;;1.38;;
77409;SDS011;66481;51.332;22.804;2023-05-07T03:07:13;1.92;;;1.75;;
77409;SDS011;66481;51.332;22.804;2023-05-07T03:11:14;2.13;;;1.63;;
77409;SDS011;66481;51.332;22.804;2023-05-07T03:15:15;2.55;;;1.55;;
77409;SDS011;66481;51.332;22.804;2023-05-07T03:19:17;1.73;;;1.52;;
77409;SDS011;66481;51.332;22.804;2023-05-07T03:23:18;2.88;;;2.05;;
77409;SDS011;66481;51.332;22.804;2023-05-07T03:27:19;1.48;;;1.30;;
77409;SDS011;66481;51.332;22.804;2023-05-07T03:31:20;2.55;;;1.67;;
77409;SDS011;66481;51.332;22.804;2023-05-07T03:35:21;2.10;;;1.67;;
77409;SDS011;66481;51.332;22.804;2023-05-07T03:39:22;1.85;;;1.65;;
77409;SDS011;66481;51.332;22.804;2023-05-07T03:43:23;2.60;;;1.23;;
77409;SDS011;66481;51.332;22.804;2023-05-07T03:47:24;1.83;;;1.35;;
77409;SDS011;66481;51.332;22.804;2023-05-07T03:51:25;3.80;;;2.42;;
77409;SDS011;66481;51.332;22.804;2023-05-07T03:55:27;2.45;;;1.50;;
77409;SDS011;66481;51.332;22.804;2023-05-07T03:59:28;1.77;;;1.33;;
77409;SDS011;66481;51.332;22.804;2023-05-07T04:03:29;1.73;;;1.40;;
77409;SDS011;66481;51.332;22.804;2023-05-07T04:07:30;2.20;;;1.30;;
77409;SDS011;66481;51.332;22.804;2023-05-07T04:11:31;2.03;;;1.58;;
77409;SDS011;66481;51.332;22.804;2023-05-07T04:15:32;2.15;;;1.35;;
77409;SDS011;66481;51.332;22.804;2023-05-07T04:19:33;2.78;;;1.70;;
77409;SDS011;66481;51.332;22.804;2023-05-07T04:23:35;2.58;;;2.33;;
77409;SDS011;66481;51.332;22.804;2023-05-07T04:27:36;2.90;;;1.75;;
77409;SDS011;66481;51.332;22.804;2023-05-07T04:31:38;1.77;;;1.55;;
77409;SDS011;66481;51.332;22.804;2023-05-07T04:35:39;2.28;;;1.70;;
77409;SDS011;66481;51.332;22.804;2023-05-07T04:39:40;2.47;;;2.03;;
77409;SDS011;66481;51.332;22.804;2023-05-07T04:43:41;2.30;;;2.10;;
77409;SDS011;66481;51.332;22.804;2023-05-07T04:47:43;2.47;;;1.95;;
77409;SDS011;66481;51.332;22.804;2023-05-07T04:51:44;2.97;;;2.67;;
77409;SDS011;66481;51.332;22.804;2023-05-07T04:55:45;2.58;;;1.88;;
77409;SDS011;66481;51.332;22.804;2023-05-07T04:59:46;3.42;;;2.53;;
77409;SDS011;66481;51.332;22.804;2023-05-07T05:03:47;3.10;;;2.55;;
77409;SDS011;66481;51.332;22.804;2023-05-07T05:07:48;3.22;;;1.98;;
77409;SDS011;66481;51.332;22.804;2023-05-07T05:11:52;3.15;;;2.17;;
77409;SDS011;66481;51.332;22.804;2023-05-07T05:15:53;4.43;;;3.28;;
77409;SDS011;66481;51.332;22.804;2023-05-07T05:19:54;3.95;;;2.00;;
77409;SDS011;66481;51.332;22.804;2023-05-07T05:23:55;3.22;;;2.88;;
77409;SDS011;66481;51.332;22.804;2023-05-07T05:27:56;4.63;;;3.42;;
77409;SDS011;66481;51.332;22.804;2023-05-07T05:31:57;3.05;;;2.20;;
77409;SDS011;66481;51.332;22.804;2023-05-07T05:35:58;3.15;;;2.30;;
77409;SDS011;66481;51.332;22.804;2023-05-07T05:40:00;2.42;;;1.95;;
77409;SDS011;66481;51.332;22.804;2023-05-07T05:44:01;2.78;;;2.33;;
77409;SDS011;66481;51.332;22.804;2023-05-07T05:48:02;2.83;;;2.13;;
77409;SDS011;66481;51.332;22.804;2023-05-07T05:52:03;2.63;;;1.98;;
77409;SDS011;66481;51.332;22.804;2023-05-07T05:56:05;2.67;;;2.28;;
77409;SDS011;66481;51.332;22.804;2023-05-07T06:00:06;3.15;;;2.58;;
77409;SDS011;66481;51.332;22.804;2023-05-07T06:04:12;3.45;;;2.40;;
77409;SDS011;66481;51.332;22.804;2023-05-07T06:08:13;3.42;;;2.38;;
77409;SDS011;66481;51.332;22.804;2023-05-07T06:12:14;2.90;;;2.58;;
77409;SDS011;66481;51.332;22.804;2023-05-07T06:16:16;3.20;;;1.98;;
77409;SDS011;66481;51.332;22.804;2023-05-07T06:20:17;3.17;;;2.63;;
77409;SDS011;66481;51.332;22.804;2023-05-07T06:24:19;2.58;;;2.28;;
77409;SDS011;66481;51.332;22.804;2023-05-07T06:28:21;3.00;;;1.80;;
77409;SDS011;66481;51.332;22.804;2023-05-07T06:32:22;3.67;;;2.10;;
77409;SDS011;66481;51.332;22.804;2023-05-07T06:36:26;3.10;;;2.35;;
77409;SDS011;66481;51.332;22.804;2023-05-07T06:40:28;3.15;;;1.95;;
77409;SDS011;66481;51.332;22.804;2023-05-07T06:44:29;3.55;;;2.42;;
77409;SDS011;66481;51.332;22.804;2023-05-07T06:48:32;4.97;;;3.20;;
77409;SDS011;66481;51.332;22.804;2023-05-07T06:52:36;3.25;;;2.28;;
77409;SDS011;66481;51.332;22.804;2023-05-07T06:56:38;8.02;;;3.20;;
77409;SDS011;66481;51.332;22.804;2023-05-07T07:00:39;4.20;;;2.67;;
77409;SDS011;66481;51.332;22.804;2023-05-07T07:04:41;3.42;;;2.60;;
77409;SDS011;66481;51.332;22.804;2023-05-07T07:08:43;4.05;;;3.30;;
77409;SDS011;66481;51.332;22.804;2023-05-07T07:12:45;3.42;;;2.42;;
77409;SDS011;66481;51.332;22.804;2023-05-07T07:16:46;2.50;;;1.95;;
77409;SDS011;66481;51.332;22.804;2023-05-07T07:20:47;2.85;;;2.33;;
77409;SDS011;66481;51.332;22.804;2023-05-07T07:24:48;3.25;;;2.20;;
77409;SDS011;66481;51.332;22.804;2023-05-07T07:28:52;3.75;;;2.25;;
77409;SDS011;66481;51.332;22.804;2023-05-07T07:38:14;4.20;;;2.58;;
77409;SDS011;66481;51.332;22.804;2023-05-07T07:42:16;2.92;;;2.35;;
77409;SDS011;66481;51.332;22.804;2023-05-07T07:46:17;2.25;;;2.05;;
77409;SDS011;66481;51.332;22.804;2023-05-07T07:50:18;2.72;;;2.45;;
77409;SDS011;66481;51.332;22.804;2023-05-07T07:54:19;3.78;;;2.75;;
77409;SDS011;66481;51.332;22.804;2023-05-07T07:58:21;4.70;;;2.33;;
77409;SDS011;66481;51.332;22.804;2023-05-07T08:02:22;2.90;;;2.08;;
77409;SDS011;66481;51.332;22.804;2023-05-07T08:06:24;3.67;;;2.47;;
77409;SDS011;66481;51.332;22.804;2023-05-07T08:10:28;3.97;;;2.53;;
77409;SDS011;66481;51.332;22.804;2023-05-07T08:14:29;3.92;;;3.28;;
77409;SDS011;66481;51.332;22.804;2023-05-07T08:18:31;4.50;;;2.88;;
77409;SDS011;66481;51.332;22.804;2023-05-07T08:22:34;3.97;;;3.08;;
77409;SDS011;66481;51.332;22.804;2023-05-07T08:26:38;3.83;;;2.17;;
77409;SDS011;66481;51.332;22.804;2023-05-07T08:30:40;4.70;;;3.42;;
77409;SDS011;66481;51.332;22.804;2023-05-07T08:34:45;4.10;;;3.28;;
77409;SDS011;66481;51.332;22.804;2023-05-07T08:38:47;3.35;;;2.90;;
77409;SDS011;66481;51.332;22.804;2023-05-07T08:42:48;2.83;;;2.50;;
77409;SDS011;66481;51.332;22.804;2023-05-07T08:46:52;4.47;;;2.78;;
77409;SDS011;66481;51.332;22.804;2023-05-07T08:50:57;3.60;;;2.00;;
77409;SDS011;66481;51.332;22.804;2023-05-07T08:55:00;4.25;;;2.55;;
77409;SDS011;66481;51.332;22.804;2023-05-07T09:03:05;4.15;;;2.85;;
77409;SDS011;66481;51.332;22.804;2023-05-07T09:07:06;2.90;;;1.80;;
77409;SDS011;66481;51.332;22.804;2023-05-07T09:11:07;4.35;;;2.35;;
77409;SDS011;66481;51.332;22.804;2023-05-07T09:15:08;3.85;;;2.22;;
77409;SDS011;66481;51.332;22.804;2023-05-07T09:19:10;3.83;;;1.70;;
77409;SDS011;66481;51.332;22.804;2023-05-07T09:23:11;3.75;;;2.25;;
77409;SDS011;66481;51.332;22.804;2023-05-07T09:27:14;3.85;;;2.10;;
77409;SDS011;66481;51.332;22.804;2023-05-07T09:31:16;2.70;;;2.20;;
77409;SDS011;66481;51.332;22.804;2023-05-07T09:35:17;3.67;;;2.17;;
77409;SDS011;66481;51.332;22.804;2023-05-07T09:39:18;5.20;;;2.45;;
77409;SDS011;66481;51.332;22.804;2023-05-07T09:43:20;2.28;;;1.88;;
77409;SDS011;66481;51.332;22.804;2023-05-07T09:47:23;3.83;;;2.25;;
77409;SDS011;66481;51.332;22.804;2023-05-07T09:51:25;1.92;;;1.60;;
77409;SDS011;66481;51.332;22.804;2023-05-07T09:55:30;3.28;;;1.80;;
77409;SDS011;66481;51.332;22.804;2023-05-07T09:59:32;1.88;;;1.30;;
77409;SDS011;66481;51.332;22.804;2023-05-07T10:03:35;2.75;;;1.85;;
77409;SDS011;66481;51.332;22.804;2023-05-07T10:07:37;3.15;;;1.88;;
77409;SDS011;66481;51.332;22.804;2023-05-07T10:11:38;2.00;;;1.50;;
77409;SDS011;66481;51.332;22.804;2023-05-07T10:15:41;2.88;;;2.58;;
77409;SDS011;66481;51.332;22.804;2023-05-07T10:19:44;2.72;;;1.60;;
77409;SDS011;66481;51.332;22.804;2023-05-07T10:23:46;2.08;;;1.73;;
77409;SDS011;66481;51.332;22.804;2023-05-07T10:27:51;1.60;;;1.35;;
77409;SDS011;66481;51.332;22.804;2023-05-07T10:31:59;2.13;;;1.40;;
77409;SDS011;66481;51.332;22.804;2023-05-07T10:36:21;2.47;;;1.60;;
77409;SDS011;66481;51.332;22.804;2023-05-07T10:40:24;2.63;;;1.52;;
77409;SDS011;66481;51.332;22.804;2023-05-07T11:00:02;3.28;;;1.67;;
77409;SDS011;66481;51.332;22.804;2023-05-07T11:04:14;3.33;;;2.00;;
77409;SDS011;66481;51.332;22.804;2023-05-07T11:08:15;2.03;;;1.40;;
77409;SDS011;66481;51.332;22.804;2023-05-07T11:12:16;3.90;;;2.30;;
77409;SDS011;66481;51.332;22.804;2023-05-07T11:16:18;2.17;;;1.45;;
77409;SDS011;66481;51.332;22.804;2023-05-07T11:24:53;2.38;;;1.67;;
77409;SDS011;66481;51.332;22.804;2023-05-07T11:28:55;2.90;;;1.45;;
77409;SDS011;66481;51.332;22.804;2023-05-07T11:32:57;2.00;;;1.60;;
77409;SDS011;66481;51.332;22.804;2023-05-07T11:36:59;2.63;;;1.63;;
77409;SDS011;66481;51.332;22.804;2023-05-07T11:41:02;2.97;;;2.25;;
77409;SDS011;66481;51.332;22.804;2023-05-07T11:45:06;1.38;;;1.17;;
77409;SDS011;66481;51.332;22.804;2023-05-07T11:49:08;2.40;;;1.80;;
77409;SDS011;66481;51.332;22.804;2023-05-07T11:53:13;3.22;;;1.92;;
77409;SDS011;66481;51.332;22.804;2023-05-07T11:57:14;3.30;;;1.98;;
77409;SDS011;66481;51.332;22.804;2023-05-07T12:01:15;2.33;;;1.65;;
77409;SDS011;66481;51.332;22.804;2023-05-07T12:05:17;2.13;;;1.92;;
77409;SDS011;66481;51.332;22.804;2023-05-07T12:09:18;1.75;;;1.55;;
77409;SDS011;66481;51.332;22.804;2023-05-07T12:13:21;3.05;;;1.50;;
77409;SDS011;66481;51.332;22.804;2023-05-07T12:17:24;2.50;;;1.70;;
77409;SDS011;66481;51.332;22.804;2023-05-07T12:21:26;3.42;;;2.10;;
77409;SDS011;66481;51.332;22.804;2023-05-07T12:25:31;1.77;;;1.48;;
77409;SDS011;66481;51.332;22.804;2023-05-07T12:29:50;1.90;;;1.23;;
77409;SDS011;66481;51.332;22.804;2023-05-07T12:33:52;2.67;;;1.45;;
77409;SDS011;66481;51.332;22.804;2023-05-07T12:37:57;2.45;;;1.77;;
77409;SDS011;66481;51.332;22.804;2023-05-07T12:42:00;2.00;;;1.67;;
77409;SDS011;66481;51.332;22.804;2023-05-07T12:46:06;2.20;;;1.40;;
77409;SDS011;66481;51.332;22.804;2023-05-07T12:50:08;2.20;;;1.17;;
77409;SDS011;66481;51.332;22.804;2023-05-07T12:54:10;1.77;;;1.48;;
77409;SDS011;66481;51.332;22.804;2023-05-07T13:03:47;1.42;;;1.10;;
77409;SDS011;66481;51.332;22.804;2023-05-07T13:07:52;2.13;;;1.30;;
77409;SDS011;66481;51.332;22.804;2023-05-07T13:11:57;3.13;;;1.58;;
77409;SDS011;66481;51.332;22.804;2023-05-07T13:16:04;3.30;;;2.05;;
77409;SDS011;66481;51.332;22.804;2023-05-07T13:20:09;3.13;;;2.10;;
77409;SDS011;66481;51.332;22.804;2023-05-07T13:24:12;2.38;;;1.73;;
77409;SDS011;66481;51.332;22.804;2023-05-07T13:28:13;1.83;;;1.05;;
77409;SDS011;66481;51.332;22.804;2023-05-07T13:32:16;1.42;;;1.02;;
77409;SDS011;66481;51.332;22.804;2023-05-07T13:36:18;1.27;;;1.13;;
77409;SDS011;66481;51.332;22.804;2023-05-07T13:40:21;1.63;;;1.52;;
77409;SDS011;66481;51.332;22.804;2023-05-07T13:44:24;2.83;;;1.90;;
77409;SDS011;66481;51.332;22.804;2023-05-07T13:48:28;2.70;;;2.05;;
77409;SDS011;66481;51.332;22.804;2023-05-07T13:52:30;2.58;;;1.55;;
77409;SDS011;66481;51.332;22.804;2023-05-07T13:56:32;1.83;;;1.55;;
77409;SDS011;66481;51.332;22.804;2023-05-07T14:00:34;1.65;;;1.10;;
77409;SDS011;66481;51.332;22.804;2023-05-07T14:04:37;1.92;;;1.75;;
77409;SDS011;66481;51.332;22.804;2023-05-07T14:08:40;1.73;;;1.20;;
77409;SDS011;66481;51.332;22.804;2023-05-07T14:12:44;2.70;;;1.70;;
77409;SDS011;66481;51.332;22.804;2023-05-07T14:16:46;1.98;;;1.50;;
77409;SDS011;66481;51.332;22.804;2023-05-07T14:20:49;2.50;;;1.70;;
77409;SDS011;66481;51.332;22.804;2023-05-07T14:24:52;2.80;;;1.58;;
77409;SDS011;66481;51.332;22.804;2023-05-07T14:28:54;5.15;;;1.92;;
77409;SDS011;66481;51.332;22.804;2023-05-07T14:36:59;2.88;;;1.70;;
77409;SDS011;66481;51.332;22.804;2023-05-07T14:41:02;1.73;;;1.52;;
77409;SDS011;66481;51.332;22.804;2023-05-07T14:45:04;1.95;;;1.45;;
77409;SDS011;66481;51.332;22.804;2023-05-07T14:49:06;4.85;;;1.77;;
77409;SDS011;66481;51.332;22.804;2023-05-07T14:53:09;5.15;;;2.35;;
77409;SDS011;66481;51.332;22.804;2023-05-07T14:57:13;2.45;;;1.58;;
77409;SDS011;66481;51.332;22.804;2023-05-07T15:01:16;2.53;;;1.35;;
77409;SDS011;66481;51.332;22.804;2023-05-07T15:05:18;3.30;;;2.13;;
77409;SDS011;66481;51.332;22.804;2023-05-07T15:09:20;8.13;;;2.00;;
77409;SDS011;66481;51.332;22.804;2023-05-07T15:13:21;3.63;;;2.03;;
77409;SDS011;66481;51.332;22.804;2023-05-07T15:17:23;3.25;;;1.85;;
77409;SDS011;66481;51.332;22.804;2023-05-07T15:21:25;9.05;;;3.03;;
77409;SDS011;66481;51.332;22.804;2023-05-07T15:25:27;1.65;;;1.52;;
77409;SDS011;66481;51.332;22.804;2023-05-07T15:29:29;3.05;;;1.65;;
77409;SDS011;66481;51.332;22.804;2023-05-07T15:33:30;2.70;;;1.60;;
77409;SDS011;66481;51.332;22.804;2023-05-07T15:37:31;2.33;;;1.50;;
77409;SDS011;66481;51.332;22.804;2023-05-07T15:41:34;3.45;;;1.83;;
77409;SDS011;66481;51.332;22.804;2023-05-07T15:45:41;2.63;;;1.70;;
77409;SDS011;66481;51.332;22.804;2023-05-07T15:49:43;3.58;;;2.00;;
77409;SDS011;66481;51.332;22.804;2023-05-07T15:53:44;2.22;;;1.63;;
77409;SDS011;66481;51.332;22.804;2023-05-07T15:57:46;2.05;;;1.55;;
77409;SDS011;66481;51.332;22.804;2023-05-07T16:01:47;3.53;;;2.00;;
77409;SDS011;66481;51.332;22.804;2023-05-07T16:05:49;2.78;;;1.60;;
77409;SDS011;66481;51.332;22.804;2023-05-07T16:09:51;3.53;;;1.67;;
77409;SDS011;66481;51.332;22.804;2023-05-07T16:13:51;2.75;;;2.10;;
77409;SDS011;66481;51.332;22.804;2023-05-07T16:17:53;2.22;;;1.13;;
77409;SDS011;66481;51.332;22.804;2023-05-07T16:21:57;4.10;;;1.90;;
77409;SDS011;66481;51.332;22.804;2023-05-07T16:25:58;4.03;;;2.00;;
77409;SDS011;66481;51.332;22.804;2023-05-07T16:30:00;2.67;;;1.33;;
77409;SDS011;66481;51.332;22.804;2023-05-07T16:34:02;2.00;;;1.30;;
77409;SDS011;66481;51.332;22.804;2023-05-07T16:38:05;4.65;;;2.75;;
77409;SDS011;66481;51.332;22.804;2023-05-07T16:42:10;2.85;;;1.80;;
77409;SDS011;66481;51.332;22.804;2023-05-07T16:46:12;4.40;;;2.55;;
77409;SDS011;66481;51.332;22.804;2023-05-07T16:50:14;2.92;;;1.90;;
77409;SDS011;66481;51.332;22.804;2023-05-07T16:54:16;3.13;;;2.20;;
77409;SDS011;66481;51.332;22.804;2023-05-07T16:58:17;2.70;;;2.00;;
77409;SDS011;66481;51.332;22.804;2023-05-07T17:02:19;2.10;;;1.42;;
77409;SDS011;66481;51.332;22.804;2023-05-07T17:06:23;6.93;;;2.10;;
77409;SDS011;66481;51.332;22.804;2023-05-07T17:10:25;3.20;;;2.08;;
77409;SDS011;66481;51.332;22.804;2023-05-07T17:14:26;3.90;;;2.15;;
77409;SDS011;66481;51.332;22.804;2023-05-07T17:18:29;3.72;;;2.08;;
77409;SDS011;66481;51.332;22.804;2023-05-07T17:22:30;2.67;;;2.00;;
77409;SDS011;66481;51.332;22.804;2023-05-07T17:26:34;4.50;;;2.70;;
77409;SDS011;66481;51.332;22.804;2023-05-07T17:30:38;2.80;;;1.75;;
77409;SDS011;66481;51.332;22.804;2023-05-07T17:34:40;2.22;;;1.63;;
77409;SDS011;66481;51.332;22.804;2023-05-07T17:38:42;2.15;;;1.92;;
77409;SDS011;66481;51.332;22.804;2023-05-07T17:42:44;4.05;;;2.15;;
77409;SDS011;66481;51.332;22.804;2023-05-07T17:46:47;3.65;;;2.45;;
77409;SDS011;66481;51.332;22.804;2023-05-07T17:50:48;3.95;;;2.35;;
77409;SDS011;66481;51.332;22.804;2023-05-07T17:54:49;3.40;;;2.35;;
77409;SDS011;66481;51.332;22.804;2023-05-07T17:58:52;3.67;;;2.35;;
77409;SDS011;66481;51.332;22.804;2023-05-07T18:02:54;5.45;;;2.72;;
77409;SDS011;66481;51.332;22.804;2023-05-07T18:06:56;6.32;;;3.30;;
77409;SDS011;66481;51.332;22.804;2023-05-07T18:10:59;4.70;;;2.70;;
77409;SDS011;66481;51.332;22.804;2023-05-07T18:15:00;5.72;;;2.88;;
77409;SDS011;66481;51.332;22.804;2023-05-07T18:19:02;5.45;;;3.35;;
77409;SDS011;66481;51.332;22.804;2023-05-07T18:23:04;6.00;;;3.50;;
77409;SDS011;66481;51.332;22.804;2023-05-07T18:27:05;5.25;;;3.05;;
77409;SDS011;66481;51.332;22.804;2023-05-07T18:31:06;5.88;;;3.65;;
77409;SDS011;66481;51.332;22.804;2023-05-07T18:35:08;6.30;;;3.72;;
77409;SDS011;66481;51.332;22.804;2023-05-07T18:39:10;6.55;;;3.85;;
77409;SDS011;66481;51.332;22.804;2023-05-07T18:43:12;7.78;;;3.65;;
77409;SDS011;66481;51.332;22.804;2023-05-07T18:47:13;5.15;;;3.58;;
77409;SDS011;66481;51.332;22.804;2023-05-07T18:51:18;5.38;;;3.33;;
77409;SDS011;66481;51.332;22.804;2023-05-07T18:55:19;6.45;;;3.20;;
77409;SDS011;66481;51.332;22.804;2023-05-07T18:59:21;5.32;;;3.10;;
77409;SDS011;66481;51.332;22.804;2023-05-07T19:03:23;6.10;;;3.67;;
77409;SDS011;66481;51.332;22.804;2023-05-07T19:07:24;6.10;;;4.10;;
77409;SDS011;66481;51.332;22.804;2023-05-07T19:11:25;8.40;;;3.72;;
77409;SDS011;66481;51.332;22.804;2023-05-07T19:15:26;11.55;;;4.80;;
77409;SDS011;66481;51.332;22.804;2023-05-07T19:19:27;15.13;;;5.45;;
77409;SDS011;66481;51.332;22.804;2023-05-07T19:23:28;9.90;;;4.97;;
77409;SDS011;66481;51.332;22.804;2023-05-07T19:27:29;11.13;;;5.25;;
77409;SDS011;66481;51.332;22.804;2023-05-07T19:31:31;8.38;;;4.28;;
77409;SDS011;66481;51.332;22.804;2023-05-07T19:35:33;9.30;;;5.15;;
77409;SDS011;66481;51.332;22.804;2023-05-07T19:39:35;10.25;;;5.38;;
77409;SDS011;66481;51.332;22.804;2023-05-07T19:43:37;12.10;;;6.82;;
77409;SDS011;66481;51.332;22.804;2023-05-07T19:47:39;8.02;;;5.00;;
77409;SDS011;66481;51.332;22.804;2023-05-07T19:51:40;9.43;;;6.00;;
77409;SDS011;66481;51.332;22.804;2023-05-07T19:55:41;12.77;;;6.38;;
77409;SDS011;66481;51.332;22.804;2023-05-07T19:59:45;13.38;;;6.10;;
77409;SDS011;66481;51.332;22.804;2023-05-07T20:03:46;7.88;;;4.80;;
77409;SDS011;66481;51.332;22.804;2023-05-07T20:07:50;7.68;;;5.88;;
77409;SDS011;66481;51.332;22.804;2023-05-07T20:11:51;12.13;;;5.78;;
77409;SDS011;66481;51.332;22.804;2023-05-07T20:15:57;11.43;;;7.45;;
77409;SDS011;66481;51.332;22.804;2023-05-07T20:19:59;15.77;;;7.60;;
77409;SDS011;66481;51.332;22.804;2023-05-07T20:24:01;13.85;;;7.68;;
77409;SDS011;66481;51.332;22.804;2023-05-07T20:28:03;12.27;;;6.53;;
77409;SDS011;66481;51.332;22.804;2023-05-07T20:32:04;12.00;;;6.38;;
77409;SDS011;66481;51.332;22.804;2023-05-07T20:36:06;11.55;;;6.82;;
77409;SDS011;66481;51.332;22.804;2023-05-07T20:40:07;10.60;;;5.32;;
77409;SDS011;66481;51.332;22.804;2023-05-07T20:44:09;12.23;;;5.72;;
77409;SDS011;66481;51.332;22.804;2023-05-07T20:48:11;7.28;;;4.75;;
77409;SDS011;66481;51.332;22.804;2023-05-07T20:52:13;9.90;;;5.18;;
77409;SDS011;66481;51.332;22.804;2023-05-07T20:56:15;7.90;;;4.88;;
77409;SDS011;66481;51.332;22.804;2023-05-07T21:00:17;8.23;;;5.25;;
77409;SDS011;66481;51.332;22.804;2023-05-07T21:04:18;8.75;;;4.97;;
77409;SDS011;66481;51.332;22.804;2023-05-07T21:08:20;8.43;;;4.80;;
77409;SDS011;66481;51.332;22.804;2023-05-07T21:12:21;9.93;;;4.97;;
77409;SDS011;66481;51.332;22.804;2023-05-07T21:16:23;8.13;;;4.60;;
77409;SDS011;66481;51.332;22.804;2023-05-07T21:20:24;8.90;;;5.43;;
77409;SDS011;66481;51.332;22.804;2023-05-07T21:24:25;12.27;;;6.03;;
77409;SDS011;66481;51.332;22.804;2023-05-07T21:28:26;10.25;;;5.85;;
77409;SDS011;66481;51.332;22.804;2023-05-07T21:32:27;7.22;;;5.13;;
77409;SDS011;66481;51.332;22.804;2023-05-07T21:36:29;10.00;;;5.40;;
77409;SDS011;66481;51.332;22.804;2023-05-07T21:40:31;12.48;;;6.63;;
77409;SDS011;66481;51.332;22.804;2023-05-07T21:44:32;9.73;;;6.20;;
77409;SDS011;66481;51.332;22.804;2023-05-07T21:48:33;10.05;;;5.97;;
77409;SDS011;66481;51.332;22.804;2023-05-07T21:52:35;11.52;;;6.20;;
77409;SDS011;66481;51.332;22.804;2023-05-07T21:56:36;15.95;;;8.27;;
77409;SDS011;66481;51.332;22.804;2023-05-07T22:00:37;13.05;;;7.20;;
77409;SDS011;66481;51.332;22.804;2023-05-07T22:04:38;14.27;;;8.18;;
77409;SDS011;66481;51.332;22.804;2023-05-07T22:08:39;14.45;;;7.45;;
77409;SDS011;66481;51.332;22.804;2023-05-07T22:12:40;10.30;;;5.75;;
77409;SDS011;66481;51.332;22.804;2023-05-07T22:16:42;8.00;;;4.60;;
77409;SDS011;66481;51.332;22.804;2023-05-07T22:20:44;9.75;;;5.70;;
77409;SDS011;66481;51.332;22.804;2023-05-07T22:24:46;19.55;;;10.27;;
77409;SDS011;66481;51.332;22.804;2023-05-07T22:28:47;11.30;;;6.57;;
77409;SDS011;66481;51.332;22.804;2023-05-07T22:32:48;9.10;;;5.22;;
77409;SDS011;66481;51.332;22.804;2023-05-07T22:36:49;10.30;;;5.18;;
77409;SDS011;66481;51.332;22.804;2023-05-07T22:40:50;7.88;;;4.97;;
77409;SDS011;66481;51.332;22.804;2023-05-07T22:44:51;7.38;;;5.00;;
77409;SDS011;66481;51.332;22.804;2023-05-07T22:48:53;5.72;;;5.13;;
77409;SDS011;66481;51.332;22.804;2023-05-07T22:52:54;10.15;;;5.38;;
77409;SDS011;66481;51.332;22.804;2023-05-07T22:56:55;5.53;;;4.35;;
77409;SDS011;66481;51.332;22.804;2023-05-07T23:00:58;7.88;;;4.78;;
77409;SDS011;66481;51.332;22.804;2023-05-07T23:04:59;6.57;;;4.53;;
77409;SDS011;66481;51.332;22.804;2023-05-07T23:09:01;8.15;;;4.65;;
77409;SDS011;66481;51.332;22.804;2023-05-07T23:13:03;9.13;;;5.00;;
77409;SDS011;66481;51.332;22.804;2023-05-07T23:17:05;7.78;;;5.25;;
77409;SDS011;66481;51.332;22.804;2023-05-07T23:21:06;8.18;;;6.13;;
77409;SDS011;66481;51.332;22.804;2023-05-07T23:25:07;7.13;;;5.35;;
77409;SDS011;66481;51.332;22.804;2023-05-07T23:29:08;7.25;;;4.45;;
77409;SDS011;66481;51.332;22.804;2023-05-07T23:33:09;7.35;;;4.97;;
77409;SDS011;66481;51.332;22.804;2023-05-07T23:37:10;8.75;;;5.10;;
77409;SDS011;66481;51.332;22.804;2023-05-07T23:41:11;8.57;;;5.43;;
77409;SDS011;66481;51.332;22.804;2023-05-07T23:45:12;7.57;;;4.55;;
77409;SDS011;66481;51.332;22.804;2023-05-07T23:49:13;9.40;;;5.20;;
77409;SDS011;66481;51.332;22.804;2023-05-07T23:53:14;9.10;;;4.93;;
77409;SDS011;66481;51.332;22.804;2023-05-07T23:57:16;7.75;;;4.75;;
